Time;durP1;ratioP1;P1;durP2;ratioP2;P2;SDS_P1;SDS_P2;PMS_P1;PMS_P2;Temp;Humidity;BMP_temperature;BMP_pressure;BME280_temperature;BME280_humidity;BME280_pressure;Samples;Min_cycle;Max_cycle;Signal;HPM_P1;HPM_P2
2021/05/30 00:01:11;;;;;;;4.40;4.00;;;11.80;99.90;;;;;;5022387;28;20468;-80
2021/05/30 00:03:37;;;;;;;4.77;4.37;;;11.70;99.90;;;;;;5022439;28;20484;-84
2021/05/30 00:06:03;;;;;;;4.53;4.10;;;11.60;99.90;;;;;;5019494;28;20874;-79
2021/05/30 00:08:30;;;;;;;3.80;3.50;;;11.70;99.90;;;;;;5021102;28;20455;-78
2021/05/30 00:10:56;;;;;;;4.50;4.13;;;11.50;99.90;;;;;;5024810;28;20483;-78
2021/05/30 00:13:23;;;;;;;5.20;3.63;;;11.70;99.90;;;;;;5025586;28;20443;-78
2021/05/30 00:15:49;;;;;;;5.20;4.33;;;11.60;99.90;;;;;;5028788;28;20813;-78
2021/05/30 00:18:15;;;;;;;4.67;4.27;;;11.50;99.90;;;;;;5032446;28;20455;-83
2021/05/30 00:20:41;;;;;;;4.10;3.80;;;11.50;99.90;;;;;;5035509;28;20443;-83
2021/05/30 00:23:07;;;;;;;5.43;4.67;;;11.30;99.90;;;;;;5034278;28;20474;-83
2021/05/30 00:25:35;;;;;;;4.60;3.60;;;11.80;99.90;;;;;;5033774;28;20448;-83
2021/05/30 00:28:01;;;;;;;6.30;3.90;;;11.40;99.90;;;;;;5033638;28;20447;-82
2021/05/30 00:30:27;;;;;;;7.43;3.67;;;11.30;99.90;;;;;;5032656;28;20463;-79
2021/05/30 00:32:54;;;;;;;4.93;4.10;;;;;;;;;;5034647;28;20467;-86
2021/05/30 00:35:20;;;;;;;4.43;3.97;;;11.40;99.90;;;;;;5023409;28;20957;-78
2021/05/30 00:37:46;;;;;;;3.80;3.47;;;11.30;99.90;;;;;;5021574;28;20447;-79
2021/05/30 00:40:13;;;;;;;4.33;3.93;;;11.60;99.90;;;;;;5020427;28;20468;-79
2021/05/30 00:42:39;;;;;;;4.97;3.70;;;11.40;99.90;;;;;;5019999;28;20860;-79
2021/05/30 00:45:17;;;;;;;4.10;3.63;;;11.30;99.90;;;;;;5021404;28;20458;-79
2021/05/30 00:47:43;;;;;;;5.50;4.40;;;11.30;99.90;;;;;;5021525;28;20494;-80
2021/05/30 00:50:11;;;;;;;5.50;4.00;;;11.30;99.90;;;;;;5018078;28;20466;-79
2021/05/30 00:52:41;;;;;;;8.17;4.17;;;11.30;99.90;;;;;;5019687;28;20425;-80
2021/05/30 00:55:09;;;;;;;4.00;3.70;;;11.30;99.90;;;;;;5019410;28;20505;-80
2021/05/30 00:57:35;;;;;;;3.63;3.40;;;11.30;99.90;;;;;;5017084;28;20973;-80
2021/05/30 01:00:03;;;;;;;3.97;3.53;;;11.30;99.90;;;;;;5018360;28;20446;-80
2021/05/30 01:02:29;;;;;;;4.40;3.90;;;11.20;99.90;;;;;;5018740;28;20470;-78
2021/05/30 01:04:55;;;;;;;4.33;3.93;;;11.20;99.90;;;;;;5022957;28;20418;-79
2021/05/30 01:07:21;;;;;;;4.17;3.77;;;11.00;99.90;;;;;;5017154;28;20440;-81
2021/05/30 01:09:48;;;;;;;4.50;4.10;;;11.20;99.90;;;;;;5015744;28;20631;-81
2021/05/30 01:12:15;;;;;;;4.27;3.77;;;11.10;99.90;;;;;;5015240;28;20938;-81
2021/05/30 01:14:41;;;;;;;7.40;4.10;;;11.10;99.90;;;;;;5019702;28;20444;-79
2021/05/30 01:17:10;;;;;;;4.17;3.70;;;11.10;99.90;;;;;;5023934;28;20451;-79
2021/05/30 01:19:37;;;;;;;5.07;4.57;;;10.90;99.90;;;;;;5023602;28;20421;-79
2021/05/30 01:22:06;;;;;;;4.43;4.03;;;11.10;99.90;;;;;;5024204;28;20462;-79
2021/05/30 01:24:36;;;;;;;5.57;4.57;;;11.10;99.90;;;;;;5018954;28;20457;-81
2021/05/30 01:27:03;;;;;;;8.70;4.40;;;10.80;99.90;;;;;;5019312;28;20493;-81
2021/05/30 01:29:29;;;;;;;5.53;4.57;;;10.90;99.90;;;;;;5017554;28;20920;-81
2021/05/30 01:31:55;;;;;;;6.00;4.03;;;10.90;99.90;;;;;;5020559;28;20461;-79
2021/05/30 01:34:21;;;;;;;4.90;4.40;;;10.80;99.90;;;;;;5025192;28;20417;-79
2021/05/30 01:36:48;;;;;;;5.23;4.73;;;10.80;99.90;;;;;;5026648;28;20516;-79
2021/05/30 01:39:14;;;;;;;4.77;4.43;;;10.80;99.90;;;;;;5025494;28;20421;-79
2021/05/30 01:41:41;;;;;;;5.30;4.80;;;10.80;99.90;;;;;;5028415;28;20467;-79
2021/05/30 01:44:07;;;;;;;4.17;3.77;;;10.70;99.90;;;;;;5028137;28;20805;-79
2021/05/30 01:46:33;;;;;;;5.20;4.57;;;10.80;99.90;;;;;;5023382;28;20501;-80
2021/05/30 01:48:59;;;;;;;4.50;4.10;;;10.70;99.90;;;;;;5020023;28;20453;-81
2021/05/30 01:51:25;;;;;;;5.00;4.60;;;10.60;99.90;;;;;;5019978;28;20453;-81
2021/05/30 01:53:54;;;;;;;5.53;4.20;;;10.60;99.90;;;;;;5021891;28;20421;-81
2021/05/30 01:59:05;;;;;;;5.47;4.30;;;10.60;99.90;;;;;;5023353;28;20403;-80
2021/05/30 02:01:32;;;;;;;14.47;4.40;;;10.50;99.90;;;;;;5023990;28;20474;-81
2021/05/30 02:04:01;;;;;;;5.47;4.43;;;10.40;99.90;;;;;;5023479;28;20426;-79
2021/05/30 02:06:29;;;;;;;7.43;4.57;;;10.50;99.90;;;;;;5020839;28;20449;-81
2021/05/30 02:08:55;;;;;;;7.47;3.80;;;10.40;99.90;;;;;;5019706;28;20456;-81
2021/05/30 02:11:22;;;;;;;8.20;4.40;;;10.50;99.90;;;;;;5018502;28;20469;-80
2021/05/30 02:13:48;;;;;;;4.23;3.87;;;10.60;99.90;;;;;;5018273;28;20447;-80
2021/05/30 02:16:16;;;;;;;4.80;4.37;;;10.50;99.90;;;;;;5018294;28;20463;-81
2021/05/30 02:18:42;;;;;;;7.13;4.63;;;;;;;;;;5020236;28;20459;-79
2021/05/30 02:21:08;;;;;;;8.50;3.70;;;10.60;99.90;;;;;;5024828;28;20981;-81
2021/05/30 02:23:35;;;;;;;7.87;4.70;;;10.50;99.90;;;;;;5018761;28;20936;-81
2021/05/30 02:26:03;;;;;;;4.53;4.23;;;10.50;99.90;;;;;;5018875;28;20418;-81
2021/05/30 02:28:30;;;;;;;4.57;3.60;;;10.60;99.90;;;;;;5018529;28;20477;-82
2021/05/30 02:30:56;;;;;;;4.40;3.70;;;10.60;99.90;;;;;;5018109;28;20494;-81
2021/05/30 02:33:23;;;;;;;3.90;3.60;;;10.50;99.90;;;;;;5018134;28;20509;-81
2021/05/30 02:35:49;;;;;;;7.37;4.37;;;10.50;99.90;;;;;;5017607;28;20447;-81
2021/05/30 02:38:15;;;;;;;5.80;3.50;;;10.60;99.90;;;;;;5017829;28;21012;-81
2021/05/30 02:40:41;;;;;;;4.00;3.70;;;10.70;99.90;;;;;;5018344;28;20474;-81
2021/05/30 02:43:07;;;;;;;4.10;3.70;;;10.60;99.90;;;;;;5023111;28;20447;-81
2021/05/30 02:45:34;;;;;;;6.33;3.53;;;10.60;99.90;;;;;;5018783;28;20485;-82
2021/05/30 02:48:00;;;;;;;3.77;3.47;;;10.60;99.90;;;;;;5017174;28;20459;-81
2021/05/30 02:50:27;;;;;;;6.87;5.00;;;10.70;99.90;;;;;;5016939;28;20522;-81
2021/05/30 02:52:53;;;;;;;6.33;3.37;;;10.60;99.90;;;;;;5017512;28;20425;-81
2021/05/30 02:55:19;;;;;;;4.70;4.10;;;10.70;99.90;;;;;;5016901;28;20451;-80
2021/05/30 02:57:45;;;;;;;4.37;3.83;;;10.50;99.90;;;;;;5017144;28;20463;-81
2021/05/30 03:00:12;;;;;;;4.37;3.43;;;10.70;99.90;;;;;;5016575;28;21005;-81
2021/05/30 03:02:38;;;;;;;4.43;3.97;;;10.40;99.90;;;;;;5017263;28;20451;-81
2021/05/30 03:05:06;;;;;;;4.13;3.73;;;10.40;99.90;;;;;;5016459;28;20955;-81
2021/05/30 03:07:33;;;;;;;4.10;3.40;;;10.40;99.90;;;;;;5016774;28;20447;-81
2021/05/30 03:09:59;;;;;;;3.80;3.50;;;10.50;99.90;;;;;;5016856;28;20518;-80
2021/05/30 03:12:25;;;;;;;6.13;3.77;;;9.90;99.90;;;;;;5017195;28;20451;-81
2021/05/30 03:14:52;;;;;;;4.20;3.80;;;10.30;99.90;;;;;;5018850;28;20443;-81
2021/05/30 03:17:18;;;;;;;4.00;3.70;;;10.40;99.90;;;;;;5017411;28;20451;-81
2021/05/30 03:19:44;;;;;;;4.33;3.77;;;10.10;99.90;;;;;;5019514;28;20447;-79
2021/05/30 03:22:10;;;;;;;4.77;3.87;;;10.30;99.90;;;;;;5026395;28;20462;-79
2021/05/30 03:24:37;;;;;;;3.80;3.50;;;10.40;99.90;;;;;;5019725;28;20973;-82
2021/05/30 03:27:03;;;;;;;4.77;4.47;;;10.40;99.90;;;;;;5018662;28;20447;-80
2021/05/30 03:29:30;;;;;;;3.80;3.50;;;10.40;99.90;;;;;;5019468;28;20471;-81
2021/05/30 03:31:56;;;;;;;4.50;4.10;;;10.30;99.90;;;;;;5022833;28;20490;-81
2021/05/30 03:34:22;;;;;;;6.20;3.90;;;10.30;99.90;;;;;;5020480;28;20451;-81
2021/05/30 03:36:52;;;;;;;6.17;3.93;;;10.30;99.90;;;;;;5018018;28;20502;-81
2021/05/30 03:39:18;;;;;;;3.77;3.47;;;10.40;99.90;;;;;;5018192;28;20466;-81
2021/05/30 03:41:52;;;;;;;4.63;3.50;;;10.40;99.90;;;;;;5017400;28;20498;-79
2021/05/30 03:44:19;;;;;;;3.57;3.27;;;10.40;99.90;;;;;;5019906;28;20805;-79
2021/05/30 03:46:45;;;;;;;5.57;4.00;;;10.60;99.90;;;;;;5017731;28;20449;-80
2021/05/30 03:49:11;;;;;;;3.90;3.60;;;10.40;99.90;;;;;;5017340;28;20501;-80
2021/05/30 03:51:37;;;;;;;3.80;3.50;;;10.40;99.90;;;;;;5048220;23;20478;-81
2021/05/30 03:54:04;;;;;;;4.70;3.33;;;10.50;99.90;;;;;;5027419;28;20443;-80
2021/05/30 03:56:30;;;;;;;4.27;3.40;;;10.60;99.90;;;;;;5026118;28;20435;-81
2021/05/30 03:58:58;;;;;;;6.80;3.40;;;10.60;99.90;;;;;;5018275;28;20443;-82
2021/05/30 04:01:24;;;;;;;3.63;3.33;;;10.60;99.90;;;;;;5017299;28;20460;-82
2021/05/30 04:03:50;;;;;;;3.50;3.20;;;10.70;99.90;;;;;;5018105;28;20447;-81
2021/05/30 04:06:17;;;;;;;5.57;3.60;;;10.60;99.90;;;;;;5018030;28;20956;-82
2021/05/30 04:08:43;;;;;;;6.33;4.43;;;10.50;99.90;;;;;;5018524;28;20440;-82
2021/05/30 04:11:09;;;;;;;4.80;3.30;;;10.60;99.90;;;;;;5022956;28;20509;-82
2021/05/30 04:13:35;;;;;;;3.37;3.17;;;10.60;99.90;;;;;;5016752;28;20459;-81
2021/05/30 04:16:02;;;;;;;3.47;3.17;;;10.60;99.90;;;;;;5024278;28;20443;-81
2021/05/30 04:18:28;;;;;;;6.40;2.90;;;10.70;99.90;;;;;;5032296;28;20443;-81
2021/05/30 04:20:55;;;;;;;5.20;4.30;;;10.70;99.90;;;;;;5019617;28;20454;-81
2021/05/30 04:23:21;;;;;;;5.13;3.73;;;10.90;99.90;;;;;;5017386;28;20433;-82
2021/05/30 04:25:47;;;;;;;3.67;3.40;;;11.00;99.90;;;;;;5016805;28;20455;-81
2021/05/30 04:28:13;;;;;;;6.63;4.63;;;11.00;99.90;;;;;;5016458;28;20447;-82
2021/05/30 04:30:39;;;;;;;3.90;3.50;;;10.80;99.90;;;;;;5016081;28;20499;-82
2021/05/30 04:33:06;;;;;;;4.63;3.13;;;10.80;99.90;;;;;;5016604;28;20472;-82
2021/05/30 04:35:32;;;;;;;3.97;3.57;;;10.80;99.90;;;;;;5016424;28;20443;-82
2021/05/30 04:37:59;;;;;;;3.90;3.50;;;10.80;99.90;;;;;;5016476;28;20447;-81
2021/05/30 04:40:25;;;;;;;5.23;3.67;;;10.90;99.90;;;;;;5015850;28;20521;-81
2021/05/30 04:42:52;;;;;;;5.97;3.43;;;10.90;99.90;;;;;;5016035;28;20426;-81
2021/05/30 04:45:19;;;;;;;3.67;3.23;;;11.10;99.90;;;;;;5015777;28;20443;-81
2021/05/30 04:47:45;;;;;;;4.17;3.53;;;11.10;99.90;;;;;;5015316;28;20443;-81
2021/05/30 04:50:14;;;;;;;3.80;3.50;;;10.90;99.90;;;;;;5015940;28;20451;-81
2021/05/30 04:52:41;;;;;;;4.50;4.03;;;11.00;99.90;;;;;;5015799;28;20435;-81
2021/05/30 04:55:10;;;;;;;3.53;2.70;;;11.00;99.90;;;;;;5015997;28;20443;-81
2021/05/30 04:57:37;;;;;;;4.77;3.73;;;11.00;99.90;;;;;;5016054;28;20941;-81
2021/05/30 05:00:04;;;;;;;5.33;3.13;;;11.40;99.90;;;;;;5017009;28;20418;-82
2021/05/30 05:02:30;;;;;;;5.23;3.33;;;11.10;99.90;;;;;;5016013;28;20483;-81
2021/05/30 05:04:57;;;;;;;4.40;3.67;;;11.10;99.90;;;;;;5026557;28;20438;-80
2021/05/30 05:07:23;;;;;;;3.57;3.27;;;11.20;99.90;;;;;;5027777;28;20454;-81
2021/05/30 05:09:49;;;;;;;4.00;3.70;;;11.20;99.90;;;;;;5026929;28;20483;-81
2021/05/30 05:12:16;;;;;;;3.57;3.00;;;11.30;99.90;;;;;;5026786;28;20434;-81
2021/05/30 05:14:42;;;;;;;3.33;3.03;;;11.50;99.90;;;;;;5031107;28;20417;-81
2021/05/30 05:17:08;;;;;;;3.50;2.93;;;11.60;99.90;;;;;;5022706;28;20449;-81
2021/05/30 05:19:34;;;;;;;3.60;2.90;;;11.80;99.90;;;;;;5028130;28;20533;-81
2021/05/30 05:22:00;;;;;;;6.43;4.07;;;11.70;99.90;;;;;;5039688;28;20574;-81
2021/05/30 05:24:27;;;;;;;3.43;3.13;;;11.60;99.90;;;;;;5036304;28;20456;-81
2021/05/30 05:26:53;;;;;;;5.23;3.37;;;11.60;99.90;;;;;;5022560;28;20945;-81
2021/05/30 05:29:19;;;;;;;4.87;3.77;;;11.70;99.90;;;;;;5021036;28;20821;-81
2021/05/30 05:31:45;;;;;;;7.33;3.60;;;11.70;99.90;;;;;;5019485;28;20525;-81
2021/05/30 05:34:11;;;;;;;3.90;3.37;;;11.80;99.90;;;;;;5019973;28;20534;-81
2021/05/30 05:36:37;;;;;;;4.65;2.90;;;11.90;99.90;;;;;;5018184;28;20435;-81
2021/05/30 05:39:04;;;;;;;3.90;2.93;;;12.00;99.90;;;;;;5019213;28;20215;-81
2021/05/30 05:41:32;;;;;;;3.20;2.90;;;12.10;99.90;;;;;;5023969;28;20514;-80
2021/05/30 05:43:58;;;;;;;3.43;3.23;;;12.20;99.90;;;;;;5037509;28;20448;-81
2021/05/30 05:46:24;;;;;;;4.20;3.60;;;12.20;99.90;;;;;;5022225;28;20443;-81
2021/05/30 05:48:50;;;;;;;4.35;3.15;;;12.30;99.90;;;;;;5019465;28;20500;-81
2021/05/30 05:51:16;;;;;;;3.40;3.10;;;12.30;99.90;;;;;;5019961;28;20449;-81
2021/05/30 05:53:42;;;;;;;3.63;3.20;;;12.20;99.90;;;;;;5019908;28;20444;-82
2021/05/30 05:56:08;;;;;;;3.27;2.93;;;12.20;99.90;;;;;;5020283;28;20522;-81
2021/05/30 05:58:35;;;;;;;3.00;2.70;;;12.30;99.90;;;;;;5028032;28;20570;-80
2021/05/30 06:01:02;;;;;;;3.77;3.33;;;12.30;99.90;;;;;;5036639;28;20483;-80
2021/05/30 06:03:28;;;;;;;4.37;3.20;;;12.30;99.90;;;;;;5037427;28;20478;-80
2021/05/30 06:05:54;;;;;;;3.60;3.30;;;12.30;99.90;;;;;;5036584;28;20458;-80
2021/05/30 06:08:20;;;;;;;3.83;2.83;;;12.40;99.90;;;;;;5035591;28;20454;-80
2021/05/30 06:10:46;;;;;;;3.03;2.80;;;12.60;99.90;;;;;;5033261;28;20464;-81
2021/05/30 06:13:12;;;;;;;8.00;2.90;;;12.50;99.90;;;;;;5024972;28;20929;-81
2021/05/30 06:15:41;;;;;;;3.90;2.73;;;12.60;99.90;;;;;;5032180;28;20467;-81
2021/05/30 06:18:10;;;;;;;4.27;3.13;;;13.00;99.90;;;;;;5027599;28;20818;-81
2021/05/30 06:20:37;;;;;;;2.73;2.53;;;12.50;99.90;;;;;;5024260;28;20467;-81
2021/05/30 06:23:03;;;;;;;3.60;3.30;;;12.50;99.90;;;;;;5023000;28;21000;-82
2021/05/30 06:25:30;;;;;;;3.37;2.70;;;12.70;99.90;;;;;;5024281;28;20517;-81
2021/05/30 06:27:57;;;;;;;2.90;2.50;;;13.10;99.90;;;;;;5021928;28;20999;-81
2021/05/30 06:30:24;;;;;;;5.53;3.00;;;13.10;99.90;;;;;;5022607;28;20475;-81
2021/05/30 06:32:51;;;;;;;7.90;2.73;;;13.10;99.90;;;;;;5023650;28;20486;-82
2021/05/30 06:35:17;;;;;;;5.27;2.67;;;13.10;99.90;;;;;;5022021;28;20440;-81
2021/05/30 06:37:43;;;;;;;7.43;3.50;;;13.00;99.90;;;;;;5020451;28;20941;-82
2021/05/30 06:40:10;;;;;;;2.90;2.70;;;12.90;99.90;;;;;;5024360;28;20440;-81
2021/05/30 06:42:36;;;;;;;4.70;2.53;;;12.40;99.90;;;;;;5030753;28;20545;-81
2021/05/30 06:45:04;;;;;;;4.37;3.50;;;13.10;99.90;;;;;;5031312;28;20219;-80
2021/05/30 06:47:30;;;;;;;3.20;2.93;;;13.10;99.90;;;;;;5032396;28;20455;-81
2021/05/30 06:49:57;;;;;;;2.80;2.60;;;13.30;99.90;;;;;;5026826;28;20455;-82
2021/05/30 06:52:24;;;;;;;2.97;2.77;;;13.20;99.90;;;;;;5033569;28;20423;-80
2021/05/30 06:54:50;;;;;;;3.57;2.60;;;13.30;99.90;;;;;;5025127;28;20452;-81
2021/05/30 06:57:16;;;;;;;2.60;2.30;;;13.20;99.90;;;;;;5024438;28;20606;-82
2021/05/30 06:59:43;;;;;;;4.33;2.63;;;13.20;99.90;;;;;;5020573;28;20462;-82
2021/05/30 07:02:09;;;;;;;2.70;2.20;;;13.30;99.90;;;;;;5021066;28;20842;-81
2021/05/30 07:04:35;;;;;;;2.70;2.50;;;13.40;99.90;;;;;;5019714;28;20558;-81
2021/05/30 07:07:02;;;;;;;2.73;2.53;;;13.40;99.90;;;;;;5020400;28;20462;-81
2021/05/30 07:09:28;;;;;;;2.40;2.20;;;13.50;99.90;;;;;;5024325;28;20447;-81
2021/05/30 07:11:54;;;;;;;2.67;2.17;;;13.60;99.90;;;;;;5032532;28;20474;-81
2021/05/30 07:14:21;;;;;;;2.40;2.20;;;;;;;;;;5032451;28;20515;-81
2021/05/30 07:16:47;;;;;;;3.37;3.17;;;13.80;99.90;;;;;;5020722;28;20454;-81
2021/05/30 07:19:13;;;;;;;5.13;2.47;;;13.90;99.90;;;;;;5021183;28;20443;-81
2021/05/30 07:21:39;;;;;;;2.43;2.23;;;13.90;99.90;;;;;;5020315;28;20622;-82
2021/05/30 07:24:07;;;;;;;2.60;2.40;;;13.40;99.90;;;;;;5019560;28;20455;-82
2021/05/30 07:26:36;;;;;;;4.03;2.47;;;14.10;99.90;;;;;;5019814;28;20466;-81
2021/05/30 07:29:03;;;;;;;6.73;2.73;;;14.20;99.90;;;;;;5021600;28;20437;-81
2021/05/30 07:31:29;;;;;;;2.80;2.40;;;14.20;99.90;;;;;;5020786;28;20464;-82
2021/05/30 07:33:55;;;;;;;3.53;2.40;;;14.30;99.90;;;;;;5021595;28;20463;-82
2021/05/30 07:36:21;;;;;;;3.13;2.67;;;14.10;99.90;;;;;;5019819;28;20443;-81
2021/05/30 07:38:47;;;;;;;3.20;2.10;;;14.20;99.90;;;;;;5018583;28;20443;-81
2021/05/30 07:41:14;;;;;;;8.00;2.97;;;14.10;99.90;;;;;;5028281;28;20229;-80
2021/05/30 07:43:40;;;;;;;6.70;3.17;;;13.90;99.90;;;;;;5029134;28;20439;-81
2021/05/30 07:46:06;;;;;;;3.80;3.07;;;14.30;99.90;;;;;;5022191;28;20454;-81
2021/05/30 07:48:33;;;;;;;3.53;3.23;;;14.30;99.90;;;;;;5018378;28;20961;-81
2021/05/30 07:50:59;;;;;;;2.80;2.60;;;14.50;99.90;;;;;;5018224;28;20513;-80
2021/05/30 07:53:25;;;;;;;3.43;3.13;;;14.60;99.90;;;;;;5017335;28;20455;-82
2021/05/30 07:55:51;;;;;;;4.30;2.63;;;14.80;99.90;;;;;;5022572;28;20474;-83
2021/05/30 07:58:19;;;;;;;5.30;2.40;;;14.70;99.90;;;;;;5026223;28;20417;-83
2021/05/30 08:00:46;;;;;;;3.73;2.90;;;14.60;99.90;;;;;;5032467;28;20482;-81
2021/05/30 08:03:12;;;;;;;3.07;2.17;;;14.70;99.90;;;;;;5029809;28;20450;-80
2021/05/30 08:05:38;;;;;;;3.17;2.20;;;14.70;99.90;;;;;;5025690;28;20463;-80
2021/05/30 08:08:04;;;;;;;2.60;2.40;;;14.90;99.90;;;;;;5026164;28;20440;-80
2021/05/30 08:10:31;;;;;;;4.17;2.53;;;15.10;99.90;;;;;;5019692;28;20459;-81
2021/05/30 08:13:00;;;;;;;2.37;2.20;;;15.20;99.90;;;;;;5019137;28;20558;-81
2021/05/30 08:15:27;;;;;;;2.43;2.23;;;15.20;99.90;;;;;;5018859;28;20462;-81
2021/05/30 08:17:56;;;;;;;3.23;2.67;;;15.00;99.90;;;;;;5018951;28;20447;-82
2021/05/30 08:20:24;;;;;;;3.93;2.73;;;15.20;99.90;;;;;;5018597;28;20471;-81
2021/05/30 08:22:51;;;;;;;2.30;2.10;;;15.20;99.90;;;;;;5022804;28;20483;-82
2021/05/30 08:25:19;;;;;;;2.03;1.90;;;15.30;99.90;;;;;;5033152;28;20451;-82
2021/05/30 08:27:47;;;;;;;2.50;2.30;;;15.40;99.90;;;;;;5029596;28;20451;-82
2021/05/30 08:30:15;;;;;;;2.03;1.90;;;15.40;99.90;;;;;;5022258;28;20467;-81
2021/05/30 08:32:44;;;;;;;3.83;2.30;;;15.40;99.90;;;;;;5021182;28;20429;-82
2021/05/30 08:35:11;;;;;;;3.80;2.30;;;15.50;99.90;;;;;;5035114;28;20961;-81
2021/05/30 08:37:41;;;;;;;3.93;2.80;;;15.40;99.90;;;;;;5022156;28;20443;-82
2021/05/30 08:40:11;;;;;;;2.13;1.93;;;15.70;99.90;;;;;;5018771;28;20517;-82
2021/05/30 08:42:37;;;;;;;4.53;2.93;;;15.40;99.90;;;;;;5020127;28;20478;-81
2021/05/30 08:45:04;;;;;;;3.10;2.47;;;15.60;99.90;;;;;;5006562;28;20535;-81
2021/05/30 08:47:30;;;;;;;2.57;2.40;;;15.70;99.90;;;;;;5028264;28;20427;-81
2021/05/30 08:49:58;;;;;;;2.50;2.30;;;15.50;99.90;;;;;;5032335;28;20450;-81
2021/05/30 08:52:25;;;;;;;2.03;1.93;;;15.70;99.90;;;;;;5027873;28;20517;-81
2021/05/30 08:54:51;;;;;;;3.30;2.60;;;15.70;99.90;;;;;;5027103;28;20941;-82
2021/05/30 08:57:20;;;;;;;2.37;2.03;;;15.90;99.90;;;;;;5023494;28;20447;-81
2021/05/30 08:59:53;;;;;;;4.43;2.00;;;16.00;99.90;;;;;;5023024;28;20462;-82
2021/05/30 09:02:20;;;;;;;2.83;2.23;;;16.10;99.90;;;;;;5022893;28;20541;-80
2021/05/30 09:04:51;;;;;;;2.30;1.80;;;16.10;99.90;;;;;;5026582;28;20466;-80
2021/05/30 09:07:36;;;;;;;2.40;2.30;;;16.20;99.90;;;;;;5026304;28;20443;-82
2021/05/30 09:10:05;;;;;;;2.03;1.58;;;16.10;99.90;;;;;;5025807;28;20482;-82
2021/05/30 09:12:36;;;;;;;4.43;2.40;;;;;;;;;;5031233;28;20445;-82
2021/05/30 09:15:07;;;;;;;3.00;1.90;;;16.40;99.90;;;;;;5029758;28;20446;-82
2021/05/30 09:17:36;;;;;;;3.90;1.90;;;16.50;99.90;;;;;;5025579;28;20193;-82
2021/05/30 09:20:05;;;;;;;6.23;2.30;;;16.90;99.90;;;;;;5023672;28;20457;-83
2021/05/30 09:22:35;;;;;;;3.80;1.90;;;16.40;99.90;;;;;;5023457;28;20480;-81
2021/05/30 09:25:21;;;;;;;2.57;2.37;;;16.80;99.90;;;;;;5024990;28;20451;-82
2021/05/30 09:27:57;;;;;;;4.50;1.90;;;16.60;98.40;;;;;;5024508;28;20442;-80
2021/05/30 09:30:29;;;;;;;4.90;3.53;;;16.60;97.40;;;;;;5030386;28;20319;-81
2021/05/30 09:33:02;;;;;;;5.43;2.17;;;16.60;98.70;;;;;;5021798;28;20447;-81
2021/05/30 09:35:30;;;;;;;3.20;1.97;;;16.60;99.00;;;;;;5023495;28;20478;-81
2021/05/30 09:37:59;;;;;;;2.50;2.30;;;;;;;;;;5032632;28;20420;-81
2021/05/30 09:40:37;;;;;;;3.10;2.27;;;17.00;97.50;;;;;;5035160;28;20467;-82
2021/05/30 09:43:05;;;;;;;4.83;3.17;;;16.80;97.90;;;;;;5024073;28;20550;-82
2021/05/30 09:45:31;;;;;;;4.90;4.50;;;16.60;99.90;;;;;;5021706;28;20447;-82
2021/05/30 09:47:57;;;;;;;7.43;2.23;;;17.00;99.90;;;;;;5020764;28;20470;-82
2021/05/30 09:50:23;;;;;;;3.80;2.43;;;17.10;99.90;;;;;;5043487;22;20549;-79
2021/05/30 09:52:51;;;;;;;2.53;2.20;;;17.00;98.10;;;;;;5022087;28;21029;-81
2021/05/30 09:55:19;;;;;;;2.10;1.90;;;17.20;99.50;;;;;;5019530;28;20447;-81
2021/05/30 09:58:10;;;;;;;5.20;2.37;;;17.20;99.80;;;;;;5020232;28;20446;-80
2021/05/30 10:00:37;;;;;;;2.30;1.90;;;17.10;98.70;;;;;;5022915;28;20477;-82
2021/05/30 10:03:04;;;;;;;5.10;3.23;;;17.10;96.40;;;;;;5025950;28;20487;-83
2021/05/30 10:05:30;;;;;;;3.33;2.63;;;17.00;97.20;;;;;;5027053;28;20451;-82
2021/05/30 10:07:58;;;;;;;2.60;2.40;;;17.40;99.90;;;;;;5026979;28;20451;-82
2021/05/30 10:10:26;;;;;;;4.00;2.33;;;17.40;99.90;;;;;;5034859;28;20447;-82
2021/05/30 10:12:53;;;;;;;2.77;2.30;;;17.40;97.50;;;;;;5040410;28;20428;-82
2021/05/30 10:15:19;;;;;;;2.87;2.57;;;17.50;98.50;;;;;;5040275;28;20448;-83
2021/05/30 10:17:47;;;;;;;4.63;2.50;;;17.60;97.40;;;;;;5039150;28;20415;-80
2021/05/30 10:20:16;;;;;;;2.73;2.40;;;17.70;99.90;;;;;;5031688;28;20442;-83
2021/05/30 10:22:43;;;;;;;2.73;2.13;;;17.50;95.90;;;;;;5030371;28;20483;-80
2021/05/30 10:25:10;;;;;;;11.43;2.80;;;17.50;95.70;;;;;;5032354;28;20454;-79
2021/05/30 10:27:38;;;;;;;3.87;2.83;;;17.40;95.30;;;;;;5032555;28;20499;-81
2021/05/30 10:30:18;;;;;;;4.40;3.40;;;17.50;99.90;;;;;;5034307;28;20447;-78
2021/05/30 10:32:45;;;;;;;3.13;2.83;;;17.50;97.60;;;;;;5032769;28;20447;-79
2021/05/30 10:35:17;;;;;;;5.47;3.20;;;17.60;96.80;;;;;;5033556;28;20544;-79
2021/05/30 10:37:44;;;;;;;7.73;2.80;;;17.70;96.90;;;;;;5034716;28;20439;-79
2021/05/30 10:40:32;;;;;;;4.13;2.83;;;17.50;99.90;;;;;;5034652;28;20479;-78
2021/05/30 10:43:20;;;;;;;2.90;2.67;;;17.50;99.90;;;;;;5033145;28;20478;-81
2021/05/30 10:46:09;;;;;;;3.53;2.20;;;17.30;94.40;;;;;;5031268;28;20471;-81
2021/05/30 10:48:37;;;;;;;4.80;2.90;;;17.40;94.40;;;;;;5023332;28;20503;-80
2021/05/30 10:54:07;;;;;;;2.63;2.40;;;17.50;93.90;;;;;;5026439;28;20486;-79
2021/05/30 10:56:37;;;;;;;3.73;3.33;;;17.50;93.70;;;;;;5027905;28;20909;-81
2021/05/30 10:59:28;;;;;;;6.37;3.17;;;17.40;93.80;;;;;;5030459;28;20957;-80
2021/05/30 11:01:56;;;;;;;5.23;2.80;;;17.50;95.30;;;;;;5026753;28;20490;-80
2021/05/30 11:04:43;;;;;;;3.73;2.70;;;17.60;95.20;;;;;;5029837;28;20497;-82
2021/05/30 11:07:39;;;;;;;2.97;2.67;;;17.70;93.80;;;;;;5021419;28;20455;-82
2021/05/30 11:10:13;;;;;;;4.83;2.37;;;17.40;94.00;;;;;;5025961;28;20515;-82
2021/05/30 11:12:53;;;;;;;8.17;2.73;;;17.60;94.10;;;;;;5025839;28;20430;-81
2021/05/30 11:15:37;;;;;;;4.43;2.93;;;17.60;94.00;;;;;;5022236;28;20862;-82
2021/05/30 11:18:04;;;;;;;3.40;3.10;;;;;;;;;;5020393;28;20431;-81
2021/05/30 11:20:42;;;;;;;3.60;2.53;;;17.70;94.10;;;;;;5019715;28;20490;-81
2021/05/30 11:23:13;;;;;;;3.63;3.10;;;17.90;96.80;;;;;;5022637;28;20537;-82
2021/05/30 11:25:43;;;;;;;8.50;2.90;;;18.10;95.00;;;;;;5022526;28;20957;-82
2021/05/30 11:28:11;;;;;;;4.60;3.03;;;18.10;93.90;;;;;;5021394;28;20451;-81
2021/05/30 11:30:50;;;;;;;4.40;2.63;;;18.20;94.70;;;;;;5019676;28;20471;-82
2021/05/30 11:33:45;;;;;;;4.00;3.00;;;18.00;92.70;;;;;;5020772;28;20443;-81
2021/05/30 11:36:18;;;;;;;8.90;4.50;;;17.90;93.50;;;;;;5024953;28;20445;-81
2021/05/30 11:38:51;;;;;;;4.37;3.10;;;18.10;99.10;;;;;;5027463;28;20835;-82
2021/05/30 11:41:20;;;;;;;5.57;3.00;;;18.10;94.10;;;;;;5025060;28;20494;-82
2021/05/30 11:44:08;;;;;;;3.87;2.60;;;18.30;94.80;;;;;;5027969;28;20459;-80
2021/05/30 11:46:39;;;;;;;6.57;2.60;;;18.30;93.20;;;;;;5021276;28;20463;-80
2021/05/30 11:49:13;;;;;;;4.67;3.27;;;18.30;92.90;;;;;;5024312;28;20428;-78
2021/05/30 11:51:47;;;;;;;4.83;2.73;;;18.30;92.70;;;;;;5027406;28;20841;-82
2021/05/30 11:54:14;;;;;;;4.67;2.67;;;;;;;;;;5026923;28;20448;-82
2021/05/30 11:56:41;;;;;;;3.60;3.00;;;18.20;97.60;;;;;;5027524;28;20455;-83
2021/05/30 11:59:08;;;;;;;2.63;2.00;;;18.40;92.80;;;;;;5026502;28;20447;-82
2021/05/30 12:01:46;;;;;;;5.63;3.43;;;18.30;99.90;;;;;;5026473;28;20484;-86
2021/05/30 12:04:48;;;;;;;4.53;3.57;;;18.60;94.40;;;;;;5023570;28;20464;-86
2021/05/30 12:07:18;;;;;;;2.87;2.50;;;18.50;99.90;;;;;;5016805;28;20455;-80
2021/05/30 12:09:52;;;;;;;6.33;2.00;;;18.00;96.80;;;;;;5021566;28;20847;-82
2021/05/30 12:12:27;;;;;;;3.90;2.63;;;18.30;91.40;;;;;;5033399;28;20519;-84
2021/05/30 12:14:54;;;;;;;2.90;2.60;;;;;;;;;;5026965;28;20424;-82
2021/05/30 12:17:21;;;;;;;2.57;2.37;;;18.40;91.00;;;;;;5024140;28;20432;-79
2021/05/30 12:19:47;;;;;;;3.90;3.30;;;18.30;91.60;;;;;;5019212;28;20456;-80
2021/05/30 12:22:20;;;;;;;6.93;2.70;;;18.60;91.60;;;;;;5017005;28;20485;-78
2021/05/30 12:24:46;;;;;;;3.90;2.40;;;18.40;91.20;;;;;;5020635;28;20436;-79
2021/05/30 12:27:13;;;;;;;5.67;2.80;;;18.50;91.10;;;;;;5018389;28;20510;-81
2021/05/30 12:29:41;;;;;;;2.97;2.67;;;18.60;91.20;;;;;;5017704;28;20441;-79
2021/05/30 12:32:08;;;;;;;2.53;2.33;;;18.70;88.20;;;;;;5020510;28;20484;-78
2021/05/30 12:34:35;;;;;;;2.60;2.27;;;18.50;88.10;;;;;;5024368;28;20447;-83
2021/05/30 12:37:02;;;;;;;3.50;3.00;;;18.40;90.00;;;;;;5021938;28;20461;-80
2021/05/30 12:39:30;;;;;;;2.53;2.40;;;18.60;91.50;;;;;;5018611;28;20516;-79
2021/05/30 12:41:59;;;;;;;3.33;2.50;;;18.80;90.20;;;;;;5016806;28;20590;-78
2021/05/30 12:44:35;;;;;;;3.70;3.40;;;18.80;86.40;;;;;;5019351;28;20457;-80
2021/05/30 12:47:06;;;;;;;2.53;2.33;;;18.90;89.70;;;;;;5018875;28;20432;-81
2021/05/30 12:49:32;;;;;;;3.90;3.50;;;19.00;87.60;;;;;;5019490;28;20504;-80
2021/05/30 12:52:02;;;;;;;2.77;2.57;;;18.80;88.20;;;;;;5016570;28;20481;-80
2021/05/30 12:54:30;;;;;;;6.70;3.40;;;19.00;87.10;;;;;;5018614;28;20469;-79
2021/05/30 12:56:57;;;;;;;4.07;2.77;;;19.00;86.10;;;;;;5025640;28;20445;-78
2021/05/30 12:59:24;;;;;;;4.60;2.60;;;18.90;87.50;;;;;;5026186;28;20480;-77
2021/05/30 13:01:52;;;;;;;3.30;2.40;;;19.00;86.50;;;;;;5028636;28;20492;-79